Time,TemperatureF,DewpointF,PressureIn,WindDirection,WindDirectionDegrees,WindSpeedMPH,WindSpeedGustMPH,Humidity,HourlyPrecipIn,Conditions,Clouds,dailyrainin,SoftwareType,DateUTC
2013-11-02 00:21:00,37.0,27.0,30.13,South,182,7.0,9.0,66,0.00,,,0.00,,2013-11-02 06:21:00,
2013-11-02 00:52:00,37.0,27.0,30.12,South,177,3.0,5.0,68,0.00,,,0.00,,2013-11-02 06:52:00,
2013-11-02 01:12:00,37.0,27.0,30.12,South,175,0.0,4.0,67,0.00,,,0.00,,2013-11-02 07:12:00,
2013-11-02 01:21:00,37.0,27.0,30.12,South,175,0.0,0.0,67,0.00,,,0.00,,2013-11-02 07:21:00,
2013-11-02 01:42:00,37.0,27.0,30.12,South,175,0.0,0.0,67,0.00,,,0.00,,2013-11-02 07:42:00,
2013-11-02 01:52:00,36.0,26.0,30.12,South,173,0.0,0.0,68,0.00,,,0.00,,2013-11-02 07:52:00,
2013-11-02 02:12:00,36.0,27.0,30.12,South,172,0.0,0.0,69,0.00,,,0.00,,2013-11-02 08:12:00,
2013-11-02 02:21:00,36.0,26.0,30.11,SSE,164,0.0,0.0,68,0.00,,,0.00,,2013-11-02 08:21:00,
2013-11-02 02:41:00,36.0,27.0,30.11,SE,142,0.0,0.0,69,0.00,,,0.00,,2013-11-02 08:41:00,
2013-11-02 02:52:00,36.0,27.0,30.11,SSE,156,0.0,0.0,69,0.00,,,0.00,,2013-11-02 08:52:00,
2013-11-02 03:21:00,37.0,27.0,30.11,South,175,0.0,0.0,68,0.00,,,0.00,,2013-11-02 09:21:00,
2013-11-02 03:43:00,36.0,26.0,30.11,South,175,0.0,0.0,68,0.00,,,0.00,,2013-11-02 09:43:00,
2013-11-02 03:53:00,36.0,26.0,30.10,South,174,0.0,0.0,68,0.00,,,0.00,,2013-11-02 09:53:00,
2013-11-02 04:22:00,36.0,26.0,30.09,South,171,0.0,0.0,68,0.00,,,0.00,,2013-11-02 10:22:00,
2013-11-02 04:53:00,35.0,26.0,30.08,South,171,0.0,0.0,69,0.00,,,0.00,,2013-11-02 10:53:00,
2013-11-02 05:22:00,35.0,26.0,30.06,SSE,165,0.0,0.0,70,0.00,,,0.00,,2013-11-02 11:22:00,
2013-11-02 05:42:00,35.0,27.0,30.06,SSE,167,0.0,0.0,71,0.00,,,0.00,,2013-11-02 11:42:00,
2013-11-02 05:52:00,34.0,26.0,30.05,South,184,0.0,0.0,72,0.00,,,0.00,,2013-11-02 11:52:00,
2013-11-02 06:21:00,33.0,26.0,30.03,South,180,0.0,0.0,75,0.00,,,0.00,,2013-11-02 12:21:00,
2013-11-02 06:42:00,33.0,26.0,30.03,South,180,0.0,0.0,76,0.00,,,0.00,,2013-11-02 12:42:00,
2013-11-02 06:52:00,31.0,25.0,30.03,South,180,0.0,0.0,77,0.00,,,0.00,,2013-11-02 12:52:00,
2013-11-02 07:22:00,30.0,25.0,30.02,South,180,0.0,0.0,80,0.00,,,0.00,,2013-11-02 13:22:00,
2013-11-02 07:42:00,31.0,25.0,30.01,South,180,0.0,0.0,79,0.00,,,0.00,,2013-11-02 13:42:00,
2013-11-02 07:52:00,31.0,25.0,30.01,South,180,0.0,0.0,79,0.00,,,0.00,,2013-11-02 13:52:00,
2013-11-02 08:21:00,33.0,26.0,29.98,South,180,0.0,0.0,76,0.00,,,0.00,,2013-11-02 14:21:00,
2013-11-02 08:42:00,34.0,27.0,29.98,South,181,0.0,0.0,75,0.00,,,0.00,,2013-11-02 14:42:00,
2013-11-02 08:52:00,34.0,27.0,29.98,South,180,0.0,0.0,74,0.00,,,0.00,,2013-11-02 14:52:00,
2013-11-02 09:11:00,33.0,26.0,29.97,South,180,0.0,0.0,76,0.00,,,0.00,,2013-11-02 15:11:00,
2013-11-02 09:22:00,32.0,26.0,29.97,South,180,0.0,0.0,77,0.00,,,0.00,,2013-11-02 15:22:00,
2013-11-02 09:43:00,32.0,27.0,29.97,South,175,0.0,0.0,80,0.00,,,0.00,,2013-11-02 15:43:00,
2013-11-02 09:53:00,34.0,29.0,29.97,South,175,0.0,0.0,81,0.00,,,0.00,,2013-11-02 15:53:00,
2013-11-02 10:23:00,38.0,30.0,29.95,SSE,157,2.0,5.0,73,0.00,,,0.00,,2013-11-02 16:23:00,
2013-11-02 10:54:00,43.0,30.0,29.93,ESE,120,7.0,10.0,61,0.00,,,0.00,,2013-11-02 16:54:00,
2013-11-02 11:22:00,44.0,29.0,29.91,ESE,110,9.0,14.0,56,0.00,,,0.00,,2013-11-02 17:22:00,
2013-11-02 11:43:00,45.0,30.0,29.90,SE,126,8.0,13.0,55,0.00,,,0.00,,2013-11-02 17:43:00,
2013-11-02 11:53:00,45.0,29.0,29.89,ESE,115,8.0,14.0,54,0.00,,,0.00,,2013-11-02 17:53:00,
2013-11-02 12:12:00,46.0,29.0,29.88,SE,135,9.0,13.0,51,0.00,,,0.00,,2013-11-02 18:12:00,
2013-11-02 12:21:00,46.0,28.0,29.88,ESE,113,8.0,12.0,49,0.00,,,0.00,,2013-11-02 18:21:00,
2013-11-02 12:42:00,47.0,29.0,29.86,ESE,111,11.0,14.0,49,0.00,,,0.00,,2013-11-02 18:42:00,
2013-11-02 12:52:00,47.0,29.0,29.84,ESE,109,10.0,16.0,49,0.00,,,0.00,,2013-11-02 18:52:00,
2013-11-02 13:21:00,47.0,29.0,29.83,SE,130,9.0,19.0,50,0.00,,,0.00,,2013-11-02 19:21:00,
2013-11-02 13:42:00,49.0,30.0,29.81,ESE,111,10.0,14.0,47,0.00,,,0.00,,2013-11-02 19:42:00,
2013-11-02 13:52:00,50.0,29.0,29.80,SE,136,9.0,19.0,44,0.00,,,0.00,,2013-11-02 19:52:00,
2013-11-02 14:12:00,51.0,29.0,29.79,SE,130,9.0,15.0,42,0.00,,,0.00,,2013-11-02 20:12:00,
2013-11-02 14:21:00,51.0,29.0,29.77,SE,125,8.0,15.0,42,0.00,,,0.00,,2013-11-02 20:21:00,
2013-11-02 14:53:00,51.0,28.0,29.74,SSE,162,13.0,19.0,40,0.00,,,0.00,,2013-11-02 20:53:00,
2013-11-02 15:12:00,52.0,28.0,29.74,SSE,154,11.0,21.0,40,0.00,,,0.00,,2013-11-02 21:12:00,
2013-11-02 15:21:00,52.0,28.0,29.73,SE,142,11.0,18.0,40,0.00,,,0.00,,2013-11-02 21:21:00,
2013-11-02 15:43:00,53.0,29.0,29.73,SE,137,11.0,18.0,39,0.00,,,0.00,,2013-11-02 21:43:00,
2013-11-02 15:54:00,53.0,27.0,29.72,SE,137,11.0,15.0,37,0.00,,,0.00,,2013-11-02 21:54:00,
2013-11-02 16:24:00,54.0,29.0,29.70,SE,138,10.0,14.0,38,0.00,,,0.00,,2013-11-02 22:24:00,
2013-11-02 16:44:00,53.0,29.0,29.70,SE,139,7.0,12.0,40,0.00,,,0.00,,2013-11-02 22:44:00,
2013-11-02 16:54:00,54.0,30.0,29.68,ESE,115,7.0,11.0,40,0.00,,,0.00,,2013-11-02 22:54:00,
2013-11-02 17:12:00,53.0,30.0,29.68,SE,127,6.0,11.0,41,0.00,,,0.00,,2013-11-02 23:12:00,
2013-11-02 17:22:00,54.0,31.0,29.67,SE,142,7.0,12.0,41,0.00,,,0.00,,2013-11-02 23:22:00,
2013-11-02 17:42:00,53.0,31.0,29.66,SSE,149,6.0,10.0,42,0.00,,,0.00,,2013-11-02 23:42:00,
2013-11-02 17:52:00,52.0,30.0,29.66,SE,143,3.0,6.0,43,0.00,,,0.00,,2013-11-02 23:52:00,
2013-11-02 18:11:00,51.0,29.0,29.65,East,84,5.0,7.0,43,0.00,,,0.00,,2013-11-03 00:11:00,
2013-11-02 18:21:00,49.0,30.0,29.65,NE,47,8.0,10.0,47,0.00,,,0.00,,2013-11-03 00:21:00,
2013-11-02 18:52:00,49.0,29.0,29.65,East,96,0.0,0.0,45,0.00,,,0.00,,2013-11-03 00:52:00,
2013-11-02 19:11:00,48.0,29.0,29.65,East,97,0.0,0.0,47,0.00,,,0.00,,2013-11-03 01:11:00,
2013-11-02 19:21:00,48.0,29.0,29.64,South,179,8.0,10.0,48,0.00,,,0.00,,2013-11-03 01:21:00,
2013-11-02 19:42:00,47.0,29.0,29.64,South,175,8.0,11.0,49,0.00,,,0.00,,2013-11-03 01:42:00,
2013-11-02 19:52:00,47.0,29.0,29.63,South,190,4.0,11.0,49,0.00,,,0.00,,2013-11-03 01:52:00,
2013-11-02 20:11:00,51.0,29.0,29.63,South,190,9.0,12.0,43,0.00,,,0.00,,2013-11-03 02:11:00,
2013-11-02 20:21:00,50.0,29.0,29.63,South,182,12.0,16.0,44,0.00,,,0.00,,2013-11-03 02:21:00,
2013-11-02 20:52:00,48.0,29.0,29.62,ESE,117,1.0,8.0,47,0.00,,,0.00,,2013-11-03 02:52:00,
2013-11-02 21:11:00,45.0,28.0,29.62,ESE,114,0.0,0.0,52,0.00,,,0.00,,2013-11-03 03:11:00,
2013-11-02 21:21:00,44.0,29.0,29.62,East,96,0.0,0.0,55,0.00,,,0.00,,2013-11-03 03:21:00,
2013-11-02 21:44:00,44.0,29.0,29.61,East,96,0.0,0.0,56,0.00,,,0.00,,2013-11-03 03:44:00,
2013-11-02 21:54:00,44.0,28.0,29.61,East,96,0.0,0.0,54,0.00,,,0.00,,2013-11-03 03:54:00,
2013-11-02 22:02:00,-999.0,-99.9,29.61,NNW,344,0.0,0.0,-999,-99.99,,,-99.99,,2013-11-03 04:02:00,
2013-11-02 22:13:00,42.0,28.0,29.61,NNW,344,0.0,0.0,57,0.00,,,0.00,,2013-11-03 04:13:00,
2013-11-02 22:23:00,42.0,28.0,29.60,NNW,336,0.0,0.0,58,0.00,,,0.00,,2013-11-03 04:23:00,
2013-11-02 22:44:00,44.0,29.0,29.60,NNW,336,0.0,0.0,55,0.00,,,0.00,,2013-11-03 04:44:00,
2013-11-02 22:52:00,44.0,28.0,29.60,NNW,337,0.0,0.0,53,0.00,,,0.00,,2013-11-03 04:52:00,
2013-11-02 23:13:00,43.0,28.0,29.59,East,92,0.0,0.0,55,0.00,,,0.00,,2013-11-03 05:13:00,
2013-11-02 23:22:00,43.0,28.0,29.59,NNE,32,0.0,0.0,56,0.00,,,0.00,,2013-11-03 05:22:00,
2013-11-02 23:43:00,44.0,29.0,29.59,NNE,32,0.0,0.0,56,0.00,,,0.00,,2013-11-03 05:43:00,
2013-11-02 23:53:00,43.0,29.0,29.59,NNE,32,0.0,0.0,58,0.00,,,0.00,,2013-11-03 05:53:00,